METARs

EEEI - Ämari Air Base

EEEI 251050Z 20005KT 9999 FEW008 SCT017 05/05 Q1008 R24/290095 N

EEKA - Kärdla

EEKA 250850Z 23004KT 200V280 9999 BKN023 04/04 Q1008

EEKE - Kuressaare

EEKE 251050Z VRB02KT 9999 FEW024 05/04 Q1009 R17/290095

EEPU - Pärnu

EEPU 251050Z 24008KT 9999 BKN014 06/05 Q1009

EETN - Lennart Meri Tallinn

EETN 251050Z 24005KT 9000 BKN005 OVC013 04/04 Q1008 R08/290195 T

EETU - Tartu

EETU 251050Z 20006KT 170V230 9999 SCT008 BKN032 06/05 Q1010

Sign In

ATC Booking

currently no ATC Bookings...